createdAt,value
2018-05-03T00:00:56.278Z,0.00
2018-05-03T00:01:56.376Z,0.00
2018-05-03T00:02:56.272Z,0.00
2018-05-03T00:03:56.269Z,0.00
2018-05-03T00:04:56.267Z,0.00
2018-05-03T00:05:56.261Z,0.00
2018-05-03T00:06:56.258Z,0.00
2018-05-03T00:07:56.258Z,0.00
2018-05-03T00:08:56.254Z,0.00
2018-05-03T00:09:56.253Z,0.00
2018-05-03T00:10:56.248Z,0.00
2018-05-03T00:11:56.246Z,0.00
2018-05-03T00:12:56.244Z,0.00
2018-05-03T00:13:56.241Z,0.00
2018-05-03T00:14:56.239Z,0.00
2018-05-03T00:15:56.236Z,0.00
2018-05-03T00:16:56.233Z,0.00
2018-05-03T00:17:56.230Z,0.00
2018-05-03T00:18:56.225Z,0.00
2018-05-03T00:19:56.224Z,0.00
2018-05-03T00:20:56.225Z,0.00
2018-05-03T00:21:56.222Z,0.00
2018-05-03T00:22:56.216Z,0.00
2018-05-03T00:23:56.213Z,0.00
2018-05-03T00:24:56.210Z,0.00
2018-05-03T00:25:56.209Z,0.00
2018-05-03T00:26:56.204Z,0.00
2018-05-03T00:27:56.202Z,0.00
2018-05-03T00:28:56.199Z,0.00
2018-05-03T00:29:56.195Z,0.00
2018-05-03T00:30:56.192Z,0.00
2018-05-03T00:31:56.191Z,0.00
2018-05-03T00:32:56.188Z,0.00
2018-05-03T00:33:56.185Z,0.00
2018-05-03T00:34:56.178Z,0.00
2018-05-03T00:35:56.181Z,0.00
2018-05-03T00:36:56.178Z,0.00
2018-05-03T00:37:56.174Z,0.00
2018-05-03T00:38:56.171Z,0.00
2018-05-03T00:39:56.169Z,0.00
2018-05-03T00:40:56.164Z,0.00
2018-05-03T00:41:56.162Z,0.00
2018-05-03T00:42:56.158Z,0.00
2018-05-03T00:43:56.157Z,0.00
2018-05-03T00:44:56.158Z,0.00
2018-05-03T00:45:56.154Z,0.00
2018-05-03T00:46:56.147Z,0.00
2018-05-03T00:47:56.144Z,0.00
2018-05-03T00:48:56.194Z,0.00
2018-05-03T00:49:56.141Z,0.00
2018-05-03T00:50:56.135Z,0.00
2018-05-03T00:51:56.131Z,0.00
2018-05-03T00:52:56.133Z,0.00
2018-05-03T00:53:56.128Z,0.00
2018-05-03T00:54:56.122Z,0.00
2018-05-03T00:55:56.121Z,0.00
2018-05-03T00:56:56.118Z,0.00
2018-05-03T00:57:56.116Z,0.00
2018-05-03T00:58:56.112Z,0.00
2018-05-03T00:59:56.110Z,0.00
2018-05-03T01:00:56.106Z,0.00
2018-05-03T01:01:56.104Z,0.00
2018-05-03T01:02:56.101Z,0.00
2018-05-03T01:03:56.104Z,0.00
2018-05-03T01:04:56.093Z,0.00
2018-05-03T01:05:56.094Z,0.00
2018-05-03T01:06:56.089Z,0.00
2018-05-03T01:07:56.086Z,0.00
2018-05-03T01:08:56.084Z,0.00
2018-05-03T01:09:56.089Z,0.00
2018-05-03T01:10:56.081Z,0.00
2018-05-03T01:11:56.074Z,0.00
2018-05-03T01:12:56.071Z,0.00
2018-05-03T01:13:56.071Z,0.00
2018-05-03T01:14:56.066Z,0.00
2018-05-03T01:15:56.065Z,0.00
2018-05-03T01:16:56.061Z,0.00
2018-05-03T01:17:56.059Z,0.00
2018-05-03T01:18:56.062Z,0.00
2018-05-03T01:19:56.052Z,0.00
2018-05-03T01:20:56.052Z,0.00
2018-05-03T01:21:56.049Z,0.00
2018-05-03T01:22:56.044Z,0.00
2018-05-03T01:23:56.046Z,0.00
2018-05-03T01:24:56.042Z,0.00
2018-05-03T01:25:56.036Z,0.00
2018-05-03T01:26:56.037Z,0.00
2018-05-03T01:27:56.032Z,0.00
2018-05-03T01:28:56.030Z,0.00
2018-05-03T01:29:56.033Z,0.00
2018-05-03T01:30:56.023Z,0.00
2018-05-03T01:31:56.019Z,0.00
2018-05-03T01:32:56.017Z,0.00
2018-05-03T01:33:56.015Z,0.00
2018-05-03T01:34:56.013Z,0.00
2018-05-03T01:35:56.013Z,0.00
2018-05-03T01:36:56.004Z,0.00
2018-05-03T01:37:56.008Z,0.00
2018-05-03T01:38:56.003Z,0.00
2018-05-03T01:39:55.999Z,0.00
2018-05-03T01:40:55.996Z,0.00
2018-05-03T01:41:55.994Z,0.00
2018-05-03T01:42:55.990Z,0.00
2018-05-03T01:43:55.989Z,0.00
2018-05-03T01:44:55.986Z,0.00
2018-05-03T01:45:55.981Z,0.00
2018-05-03T01:46:55.979Z,0.00
2018-05-03T01:47:55.977Z,0.00
2018-05-03T01:48:55.976Z,0.00
2018-05-03T01:49:55.973Z,0.00
2018-05-03T01:50:55.970Z,0.00
2018-05-03T01:51:55.967Z,0.00
2018-05-03T01:52:55.965Z,0.00
2018-05-03T01:53:55.981Z,0.00
2018-05-03T01:54:55.959Z,0.00
2018-05-03T01:55:55.956Z,0.00
2018-05-03T01:56:55.954Z,0.00
2018-05-03T01:57:55.955Z,0.00
2018-05-03T01:58:55.949Z,0.00
2018-05-03T01:59:55.945Z,0.00
2018-05-03T02:00:55.942Z,0.00
2018-05-03T02:01:55.969Z,0.00
2018-05-03T02:02:55.937Z,0.00
2018-05-03T02:03:55.934Z,0.00
2018-05-03T02:04:55.932Z,0.00
2018-05-03T02:05:55.936Z,0.00
2018-05-03T02:06:55.927Z,0.00
2018-05-03T02:07:55.928Z,0.00
2018-05-03T02:08:55.920Z,0.00
2018-05-03T02:09:55.922Z,0.00
2018-05-03T02:10:55.915Z,0.00
2018-05-03T02:11:55.913Z,0.00
2018-05-03T02:12:55.909Z,0.00
2018-05-03T02:13:55.908Z,0.00
2018-05-03T02:14:55.903Z,0.00
2018-05-03T02:15:55.901Z,0.00
2018-05-03T02:16:55.898Z,0.00
2018-05-03T02:17:55.897Z,0.00
2018-05-03T02:18:55.893Z,0.00
2018-05-03T02:19:55.890Z,0.00
2018-05-03T02:20:55.888Z,0.00
2018-05-03T02:21:55.885Z,0.00
2018-05-03T02:22:55.881Z,0.00
2018-05-03T02:23:55.880Z,0.00
2018-05-03T02:24:55.876Z,0.00
2018-05-03T02:25:55.874Z,0.00
2018-05-03T02:26:55.873Z,0.00
2018-05-03T02:27:55.869Z,0.00
2018-05-03T02:28:55.870Z,0.00
2018-05-03T02:29:55.865Z,0.00
2018-05-03T02:30:55.859Z,0.00
2018-05-03T02:31:55.858Z,0.00
2018-05-03T02:32:55.854Z,0.00
2018-05-03T02:33:55.852Z,0.00
2018-05-03T02:34:55.850Z,0.00
2018-05-03T02:35:55.846Z,0.00
2018-05-03T02:36:55.843Z,0.00
2018-05-03T02:37:55.842Z,0.00
2018-05-03T02:38:55.841Z,0.00
2018-05-03T02:39:55.833Z,0.00
2018-05-03T02:40:55.833Z,0.00
2018-05-03T02:41:55.827Z,0.00
2018-05-03T02:42:55.821Z,0.00
2018-05-03T02:43:55.821Z,0.00
2018-05-03T02:44:55.818Z,0.00
2018-05-03T02:45:55.814Z,0.00
2018-05-03T02:46:55.811Z,0.00
2018-05-03T02:47:55.808Z,0.00
2018-05-03T02:48:55.809Z,0.00
2018-05-03T02:49:55.800Z,0.00
2018-05-03T02:50:55.797Z,0.00
2018-05-03T02:51:55.799Z,0.00
2018-05-03T02:52:55.797Z,0.00
2018-05-03T02:53:55.788Z,0.00
2018-05-03T02:54:55.789Z,0.00
2018-05-03T02:55:55.784Z,0.00
2018-05-03T02:56:55.779Z,0.00
2018-05-03T02:57:55.809Z,0.00
2018-05-03T02:58:55.771Z,0.00
2018-05-03T02:59:55.772Z,0.00
2018-05-03T03:00:55.771Z,0.00
2018-05-03T03:01:55.760Z,0.00
2018-05-03T03:02:55.759Z,0.00
2018-05-03T03:03:55.760Z,0.00
2018-05-03T03:04:55.752Z,0.00
2018-05-03T03:05:55.747Z,0.00
2018-05-03T03:06:55.752Z,0.00
2018-05-03T03:07:55.746Z,0.00
2018-05-03T03:08:55.738Z,0.00
2018-05-03T03:09:55.735Z,0.00
2018-05-03T03:10:55.728Z,0.00
2018-05-03T03:11:55.731Z,0.00
2018-05-03T03:12:55.725Z,0.00
2018-05-03T03:13:55.721Z,0.00
2018-05-03T03:14:55.715Z,0.00
2018-05-03T03:15:55.718Z,0.00
2018-05-03T03:16:55.710Z,0.00
2018-05-03T03:17:55.706Z,0.00
2018-05-03T03:18:55.703Z,0.00
2018-05-03T03:19:55.703Z,0.00
2018-05-03T03:20:55.697Z,0.00
2018-05-03T03:21:55.751Z,0.00
2018-05-03T03:22:55.691Z,0.00
2018-05-03T03:23:55.693Z,0.00
2018-05-03T03:24:55.689Z,0.00
2018-05-03T03:25:55.681Z,0.00
2018-05-03T03:26:55.683Z,0.00
2018-05-03T03:27:55.675Z,0.00
2018-05-03T03:28:55.673Z,0.00
2018-05-03T03:29:55.669Z,0.00
2018-05-03T03:30:55.665Z,0.00
2018-05-03T03:31:55.665Z,0.00
2018-05-03T03:32:55.659Z,0.00
2018-05-03T03:33:55.657Z,0.00
2018-05-03T03:34:55.652Z,0.00
2018-05-03T03:35:55.650Z,0.00
2018-05-03T03:36:55.646Z,0.00
2018-05-03T03:37:55.645Z,0.00
2018-05-03T03:38:55.645Z,0.00
2018-05-03T03:39:55.641Z,5.63
2018-05-03T03:40:55.633Z,5.63
2018-05-03T03:41:55.631Z,5.63
2018-05-03T03:42:55.625Z,5.63
2018-05-03T03:43:55.630Z,5.63
2018-05-03T03:44:55.618Z,5.63
2018-05-03T03:45:55.618Z,5.63
2018-05-03T03:46:55.615Z,5.63
2018-05-03T03:47:55.614Z,5.63
2018-05-03T03:48:55.607Z,11.25
2018-05-03T03:49:55.604Z,11.25
2018-05-03T03:50:55.602Z,11.25
2018-05-03T03:51:55.598Z,11.25
2018-05-03T03:52:55.593Z,11.25
2018-05-03T03:53:55.596Z,11.25
2018-05-03T03:54:55.587Z,11.25
2018-05-03T03:55:55.585Z,16.88
2018-05-03T03:56:55.579Z,16.88
2018-05-03T03:57:55.577Z,16.88
2018-05-03T03:58:55.573Z,16.88
2018-05-03T03:59:55.573Z,16.88
2018-05-03T04:00:55.568Z,16.88
2018-05-03T04:01:55.564Z,16.88
2018-05-03T04:02:55.559Z,22.50
2018-05-03T04:03:55.557Z,22.50
2018-05-03T04:04:55.556Z,22.50
2018-05-03T04:05:55.551Z,28.13
2018-05-03T04:06:55.547Z,28.13
2018-05-03T04:07:55.545Z,28.13
2018-05-03T04:08:55.541Z,28.13
2018-05-03T04:09:55.541Z,33.75
2018-05-03T04:10:55.534Z,33.75
2018-05-03T04:11:55.535Z,33.75
2018-05-03T04:12:55.528Z,39.38
2018-05-03T04:13:55.526Z,39.38
2018-05-03T04:14:55.521Z,45.00
2018-05-03T04:15:55.516Z,45.00
2018-05-03T04:16:55.515Z,45.00
2018-05-03T04:17:55.515Z,45.00
2018-05-03T04:18:55.509Z,45.00
2018-05-03T04:19:55.507Z,45.00
2018-05-03T04:20:55.502Z,45.00
2018-05-03T04:21:55.501Z,45.00
2018-05-03T04:22:55.495Z,45.00
2018-05-03T04:23:55.492Z,50.63
2018-05-03T04:24:55.490Z,50.63
2018-05-03T04:25:55.487Z,50.63
2018-05-03T04:26:55.481Z,56.25
2018-05-03T04:27:55.478Z,61.88
2018-05-03T04:28:55.475Z,67.50
2018-05-03T04:29:55.495Z,73.13
2018-05-03T04:30:55.470Z,73.13
2018-05-03T04:31:55.467Z,78.75
2018-05-03T04:32:55.462Z,84.38
2018-05-03T04:33:55.495Z,84.38
2018-05-03T04:34:55.476Z,90.00
2018-05-03T04:35:55.453Z,90.00
2018-05-03T04:36:55.454Z,90.00
2018-05-03T04:37:55.449Z,90.00
2018-05-03T04:38:55.443Z,90.00
2018-05-03T04:39:55.448Z,84.38
2018-05-03T04:40:55.439Z,84.38
2018-05-03T04:41:55.435Z,84.38
2018-05-03T04:42:55.430Z,78.75
2018-05-03T04:43:55.429Z,78.75
2018-05-03T04:44:55.426Z,73.13
2018-05-03T04:45:55.424Z,73.13
2018-05-03T04:46:55.507Z,73.13
2018-05-03T04:47:55.418Z,73.13
2018-05-03T04:48:55.416Z,73.13
2018-05-03T04:49:55.412Z,73.13
2018-05-03T04:50:55.412Z,73.13
2018-05-03T04:51:55.405Z,67.50
2018-05-03T04:52:55.401Z,73.13
2018-05-03T04:53:55.401Z,73.13
2018-05-03T04:54:55.399Z,73.13
2018-05-03T04:55:55.394Z,73.13
2018-05-03T04:56:55.394Z,78.75
2018-05-03T04:57:55.387Z,78.75
2018-05-03T04:58:55.385Z,78.75
2018-05-03T04:59:55.382Z,78.75
2018-05-03T05:00:55.381Z,84.38
2018-05-03T05:01:55.378Z,84.38
2018-05-03T05:02:55.377Z,84.38
2018-05-03T05:03:55.369Z,84.38
2018-05-03T05:04:55.368Z,78.75
2018-05-03T05:05:55.365Z,78.75
2018-05-03T05:06:55.362Z,78.75
2018-05-03T05:07:55.360Z,78.75
2018-05-03T05:08:55.358Z,84.38
2018-05-03T05:09:55.352Z,84.38
2018-05-03T05:10:55.350Z,84.38
2018-05-03T05:11:55.348Z,84.38
2018-05-03T05:12:55.347Z,84.38
2018-05-03T05:13:55.344Z,84.38
2018-05-03T05:14:55.339Z,90.00
2018-05-03T05:15:55.338Z,90.00
2018-05-03T05:16:55.335Z,95.63
2018-05-03T05:17:55.418Z,95.63
2018-05-03T05:18:55.330Z,90.00
2018-05-03T05:19:55.328Z,90.00
2018-05-03T05:20:55.400Z,95.63
2018-05-03T05:21:55.323Z,95.63
2018-05-03T05:22:55.319Z,101.25
2018-05-03T05:23:55.316Z,101.25
2018-05-03T05:24:55.316Z,101.25
2018-05-03T05:25:55.314Z,101.25
2018-05-03T05:26:55.309Z,95.63
2018-05-03T05:27:55.305Z,95.63
2018-05-03T05:28:55.302Z,101.25
2018-05-03T05:29:55.303Z,112.50
2018-05-03T05:30:55.304Z,123.75
2018-05-03T05:31:55.295Z,123.75
2018-05-03T05:32:55.295Z,129.38
2018-05-03T05:33:55.293Z,140.63
2018-05-03T05:34:55.288Z,129.38
2018-05-03T05:35:55.286Z,123.75
2018-05-03T05:36:55.287Z,123.75
2018-05-03T05:37:55.284Z,118.13
2018-05-03T05:38:55.334Z,106.88
2018-05-03T05:39:55.277Z,112.50
2018-05-03T05:40:55.280Z,112.50
2018-05-03T05:41:55.275Z,118.13
2018-05-03T05:42:55.277Z,118.13
2018-05-03T05:43:55.272Z,129.38
2018-05-03T05:44:55.280Z,140.63
2018-05-03T05:45:55.267Z,140.63
2018-05-03T05:46:55.263Z,146.25
2018-05-03T05:47:55.260Z,146.25
2018-05-03T05:48:55.262Z,157.50
2018-05-03T05:49:55.259Z,151.88
2018-05-03T05:50:55.258Z,163.13
2018-05-03T05:51:55.261Z,180.00
2018-05-03T05:52:55.251Z,174.38
2018-05-03T05:53:55.249Z,185.63
2018-05-03T05:54:55.250Z,157.50
2018-05-03T05:55:55.245Z,140.63
2018-05-03T05:56:55.244Z,135.00
2018-05-03T05:57:55.242Z,112.50
2018-05-03T05:58:55.313Z,106.88
2018-05-03T05:59:55.239Z,101.25
2018-05-03T06:00:55.240Z,101.25
2018-05-03T06:01:55.241Z,95.63
2018-05-03T06:02:55.231Z,101.25
2018-05-03T06:03:55.230Z,106.88
2018-05-03T06:04:55.243Z,106.88
2018-05-03T06:05:55.226Z,106.88
2018-05-03T06:06:55.223Z,101.25
2018-05-03T06:07:55.226Z,95.63
2018-05-03T06:08:55.222Z,95.63
2018-05-03T06:09:55.287Z,101.25
2018-05-03T06:10:55.220Z,112.50
2018-05-03T06:11:55.216Z,129.38
2018-05-03T06:12:55.214Z,146.25
2018-05-03T06:13:55.219Z,146.25
2018-05-03T06:14:55.213Z,151.88
2018-05-03T06:15:55.214Z,174.38
2018-05-03T06:16:55.208Z,180.00
2018-05-03T06:17:55.207Z,168.75
2018-05-03T06:18:55.202Z,163.13
2018-05-03T06:19:55.202Z,163.13
2018-05-03T06:20:55.204Z,157.50
2018-05-03T06:21:55.199Z,157.50
2018-05-03T06:22:55.203Z,151.88
2018-05-03T06:23:55.199Z,157.50
2018-05-03T06:24:55.196Z,157.50
2018-05-03T06:25:55.209Z,163.13
2018-05-03T06:26:55.192Z,174.38
2018-05-03T06:27:55.190Z,168.75
2018-05-03T06:28:55.192Z,180.00
2018-05-03T06:29:55.187Z,196.88
2018-05-03T06:30:55.187Z,225.00
2018-05-03T06:31:55.229Z,270.00
2018-05-03T06:32:55.187Z,348.75
2018-05-03T06:33:55.182Z,281.25
2018-05-03T06:34:55.180Z,258.75
2018-05-03T06:35:55.215Z,241.88
2018-05-03T06:36:55.178Z,225.00
2018-05-03T06:37:55.180Z,196.88
2018-05-03T06:38:55.259Z,174.38
2018-05-03T06:39:55.174Z,163.13
2018-05-03T06:40:55.174Z,157.50
2018-05-03T06:41:55.181Z,163.13
2018-05-03T06:42:55.171Z,163.13
2018-05-03T06:43:55.169Z,163.13
2018-05-03T06:44:55.170Z,157.50
2018-05-03T06:45:55.173Z,146.25
2018-05-03T06:46:55.167Z,146.25
2018-05-03T06:47:55.168Z,151.88
2018-05-03T06:48:55.167Z,151.88
2018-05-03T06:49:55.163Z,157.50
2018-05-03T06:50:55.162Z,174.38
2018-05-03T06:51:55.163Z,191.25
2018-05-03T06:52:55.160Z,337.50
2018-05-03T06:53:55.162Z,202.50
2018-05-03T06:54:55.162Z,196.88
2018-05-03T06:55:55.156Z,191.25
2018-05-03T06:56:55.151Z,196.88
2018-05-03T06:57:55.154Z,196.88
2018-05-03T06:58:55.154Z,185.63
2018-05-03T06:59:55.152Z,185.63
2018-05-03T07:00:55.150Z,180.00
2018-05-03T07:01:55.151Z,174.38
2018-05-03T07:02:55.148Z,168.75
2018-05-03T07:03:55.224Z,168.75
2018-05-03T07:04:55.146Z,174.38
2018-05-03T07:05:55.141Z,168.75
2018-05-03T07:06:55.141Z,163.13
2018-05-03T07:07:55.143Z,163.13
2018-05-03T07:08:55.145Z,163.13
2018-05-03T07:09:55.229Z,168.75
2018-05-03T07:10:55.141Z,163.13
2018-05-03T07:11:55.137Z,157.50
2018-05-03T07:12:55.136Z,168.75
2018-05-03T07:13:55.137Z,174.38
2018-05-03T07:14:55.132Z,174.38
2018-05-03T07:15:55.140Z,168.75
2018-05-03T07:16:55.131Z,168.75
2018-05-03T07:17:55.137Z,168.75
2018-05-03T07:18:55.129Z,174.38
2018-05-03T07:19:55.126Z,180.00
2018-05-03T07:20:55.132Z,185.63
2018-05-03T07:21:55.123Z,208.13
2018-05-03T07:22:55.121Z,225.00
2018-05-03T07:23:55.185Z,236.25
2018-05-03T07:24:55.119Z,241.88
2018-05-03T07:25:55.118Z,258.75
2018-05-03T07:26:55.117Z,275.63
2018-05-03T07:27:55.113Z,286.88
2018-05-03T07:28:55.115Z,303.75
2018-05-03T07:29:56.618Z,315.00
2018-05-03T07:30:55.111Z,309.38
2018-05-03T07:31:55.109Z,298.13
2018-05-03T07:32:55.108Z,309.38
2018-05-03T07:33:55.114Z,326.25
2018-05-03T07:34:55.109Z,360.00
2018-05-03T07:35:55.103Z,371.25
2018-05-03T07:36:55.103Z,360.00
2018-05-03T07:37:55.098Z,337.50
2018-05-03T07:38:55.107Z,326.25
2018-05-03T07:39:55.102Z,326.25
2018-05-03T07:40:55.109Z,309.38
2018-05-03T07:41:55.097Z,281.25
2018-05-03T07:42:55.100Z,270.00
2018-05-03T07:43:55.096Z,281.25
2018-05-03T07:44:55.097Z,303.75
2018-05-03T07:45:55.097Z,303.75
2018-05-03T07:46:55.096Z,292.50
2018-05-03T07:47:55.096Z,298.13
2018-05-03T07:48:55.091Z,303.75
2018-05-03T07:49:55.094Z,315.00
2018-05-03T07:50:55.093Z,315.00
2018-05-03T07:51:55.093Z,309.38
2018-05-03T07:52:55.110Z,303.75
2018-05-03T07:53:55.104Z,298.13
2018-05-03T07:54:55.091Z,292.50
2018-05-03T07:55:55.091Z,298.13
2018-05-03T07:56:55.093Z,315.00
2018-05-03T07:57:55.092Z,326.25
2018-05-03T07:58:55.094Z,331.88
2018-05-03T07:59:55.089Z,337.50
2018-05-03T08:00:55.093Z,337.50
2018-05-03T08:01:55.098Z,337.50
2018-05-03T08:02:55.094Z,331.88
2018-05-03T08:03:55.092Z,331.88
2018-05-03T08:04:55.128Z,326.25
2018-05-03T08:05:55.099Z,320.63
2018-05-03T08:06:55.111Z,320.63
2018-05-03T08:07:55.108Z,320.63
2018-05-03T08:08:55.119Z,326.25
2018-05-03T08:09:55.118Z,331.88
2018-05-03T08:10:55.124Z,337.50
2018-05-03T08:11:55.143Z,354.38
2018-05-03T08:12:55.148Z,365.63
2018-05-03T08:13:55.150Z,376.88
2018-05-03T08:14:55.154Z,405.00
2018-05-03T08:15:55.159Z,466.88
2018-05-03T08:16:55.175Z,478.13
2018-05-03T08:17:55.169Z,540.00
2018-05-03T08:18:55.171Z,646.88
2018-05-03T08:19:55.175Z,984.38
2018-05-03T08:20:55.182Z,1141.88
2018-05-03T08:21:55.188Z,1755.00
2018-05-03T08:22:55.190Z,1012.50
2018-05-03T08:23:55.196Z,826.88
2018-05-03T08:24:55.201Z,1395.00
2018-05-03T08:25:55.208Z,945.00
2018-05-03T08:26:55.214Z,1378.13
2018-05-03T08:27:55.223Z,1676.25
2018-05-03T08:28:55.225Z,1985.63
2018-05-03T08:29:55.231Z,2120.63
2018-05-03T08:30:55.239Z,2632.50
2018-05-03T08:31:55.341Z,2666.25
2018-05-03T08:32:55.250Z,2638.13
2018-05-03T08:33:55.255Z,2610.00
2018-05-03T08:34:55.260Z,2565.00
2018-05-03T08:35:55.264Z,2413.13
2018-05-03T08:36:55.271Z,1985.63
2018-05-03T08:37:55.275Z,1873.13
2018-05-03T08:38:55.255Z,2148.75
2018-05-03T08:39:55.261Z,2109.38
2018-05-03T08:40:55.271Z,1496.25
2018-05-03T08:41:55.269Z,528.75
2018-05-03T08:42:55.281Z,309.38
2018-05-03T08:43:55.289Z,292.50
2018-05-03T08:44:55.286Z,315.00
2018-05-03T08:45:55.293Z,303.75
2018-05-03T08:46:55.294Z,286.88
2018-05-03T08:47:55.300Z,303.75
2018-05-03T08:48:55.306Z,292.50
2018-05-03T08:49:55.331Z,281.25
2018-05-03T08:50:55.317Z,275.63
2018-05-03T08:51:55.323Z,275.63
2018-05-03T08:52:55.331Z,270.00
2018-05-03T08:53:55.333Z,264.38
2018-05-03T08:54:55.335Z,258.75
2018-05-03T08:55:55.339Z,253.13
2018-05-03T08:56:55.354Z,247.50
2018-05-03T08:57:55.347Z,236.25
2018-05-03T08:58:55.336Z,236.25
2018-05-03T08:59:55.343Z,230.63
2018-05-03T09:00:55.362Z,225.00
2018-05-03T09:01:55.405Z,219.38
2018-05-03T09:02:55.358Z,219.38
2018-05-03T09:03:55.360Z,219.38
2018-05-03T09:04:55.362Z,213.75
2018-05-03T09:05:55.368Z,213.75
2018-05-03T09:06:55.370Z,213.75
2018-05-03T09:07:55.424Z,213.75
2018-05-03T09:08:55.394Z,213.75
2018-05-03T09:09:55.403Z,213.75
2018-05-03T09:10:55.354Z,213.75
2018-05-03T09:11:55.361Z,208.13
2018-05-03T09:12:55.362Z,208.13
2018-05-03T09:13:55.381Z,208.13
2018-05-03T09:14:55.370Z,208.13
2018-05-03T09:15:55.374Z,213.75
2018-05-03T09:16:55.378Z,213.75
2018-05-03T09:17:55.383Z,213.75
2018-05-03T09:18:55.387Z,213.75
2018-05-03T09:19:55.391Z,213.75
2018-05-03T09:20:55.396Z,208.13
2018-05-03T09:21:55.399Z,208.13
2018-05-03T09:22:55.402Z,208.13
2018-05-03T09:23:55.406Z,208.13
2018-05-03T09:24:55.410Z,208.13
2018-05-03T09:25:55.413Z,208.13
2018-05-03T09:26:55.419Z,208.13
2018-05-03T09:27:55.421Z,208.13
2018-05-03T09:28:55.424Z,208.13
2018-05-03T09:29:55.428Z,202.50
2018-05-03T09:30:55.432Z,202.50
2018-05-03T09:31:55.435Z,202.50
2018-05-03T09:32:55.439Z,202.50
2018-05-03T09:33:55.294Z,202.50
2018-05-03T09:34:55.299Z,202.50
2018-05-03T09:35:55.298Z,196.88
2018-05-03T09:36:55.297Z,196.88
2018-05-03T09:37:55.297Z,196.88
2018-05-03T09:38:55.297Z,196.88
2018-05-03T09:39:55.297Z,196.88
2018-05-03T09:40:55.302Z,196.88
2018-05-03T09:41:55.300Z,196.88
2018-05-03T09:42:55.306Z,196.88
2018-05-03T09:43:55.302Z,196.88
2018-05-03T09:44:55.305Z,196.88
2018-05-03T09:45:55.305Z,191.25
2018-05-03T09:46:55.306Z,191.25
2018-05-03T09:47:55.307Z,191.25
2018-05-03T09:48:55.305Z,191.25
2018-05-03T09:49:55.308Z,191.25
2018-05-03T09:50:55.309Z,196.88
2018-05-03T09:51:55.353Z,196.88
2018-05-03T09:52:55.311Z,202.50
2018-05-03T09:53:55.312Z,196.88
2018-05-03T09:54:55.334Z,196.88
2018-05-03T09:55:55.316Z,196.88
2018-05-03T09:56:55.319Z,196.88
2018-05-03T09:57:55.319Z,196.88
2018-05-03T09:58:55.317Z,196.88
2018-05-03T09:59:55.318Z,196.88
2018-05-03T10:00:55.319Z,196.88
2018-05-03T10:01:55.324Z,196.88
2018-05-03T10:02:55.327Z,196.88
2018-05-03T10:03:55.327Z,196.88
2018-05-03T10:04:55.405Z,196.88
2018-05-03T10:05:55.323Z,196.88
2018-05-03T10:06:55.330Z,202.50
2018-05-03T10:07:55.331Z,202.50
2018-05-03T10:08:55.357Z,202.50
2018-05-03T10:09:55.327Z,202.50
2018-05-03T10:10:55.329Z,208.13
2018-05-03T10:11:55.334Z,208.13
2018-05-03T10:12:55.333Z,213.75
2018-05-03T10:13:55.335Z,225.00
2018-05-03T10:14:55.331Z,202.50
2018-05-03T10:15:55.335Z,213.75
2018-05-03T10:16:55.339Z,264.38
2018-05-03T10:17:55.342Z,309.38
2018-05-03T10:18:55.335Z,348.75
2018-05-03T10:19:55.338Z,348.75
2018-05-03T10:20:55.342Z,331.88
2018-05-03T10:21:55.345Z,326.25
2018-05-03T10:22:55.346Z,331.88
2018-05-03T10:23:55.347Z,320.63
2018-05-03T10:24:55.350Z,309.38
2018-05-03T10:25:55.352Z,309.38
2018-05-03T10:26:55.351Z,298.13
2018-05-03T10:27:55.367Z,309.38
2018-05-03T10:28:55.355Z,298.13
2018-05-03T10:29:55.441Z,236.25
2018-05-03T10:30:55.356Z,202.50
2018-05-03T10:31:55.357Z,196.88
2018-05-03T10:32:55.362Z,191.25
2018-05-03T10:33:55.370Z,191.25
2018-05-03T10:34:55.360Z,191.25
2018-05-03T10:35:55.404Z,196.88
2018-05-03T10:36:55.373Z,191.25
2018-05-03T10:37:55.369Z,196.88
2018-05-03T10:38:55.373Z,196.88
2018-05-03T10:39:55.368Z,202.50
2018-05-03T10:40:55.373Z,208.13
2018-05-03T10:41:55.446Z,219.38
2018-05-03T10:42:55.384Z,236.25
2018-05-03T10:43:55.381Z,247.50
2018-05-03T10:44:55.378Z,264.38
2018-05-03T10:45:55.437Z,258.75
2018-05-03T10:46:55.773Z,230.63
2018-05-03T10:47:55.444Z,230.63
2018-05-03T10:48:55.393Z,230.63
2018-05-03T10:49:55.393Z,202.50
2018-05-03T10:50:55.393Z,191.25
2018-05-03T10:51:55.389Z,202.50
2018-05-03T10:52:55.392Z,219.38
2018-05-03T10:53:55.391Z,225.00
2018-05-03T10:54:55.394Z,219.38
2018-05-03T10:55:55.396Z,219.38
2018-05-03T10:56:55.397Z,213.75
2018-05-03T10:57:55.399Z,202.50
2018-05-03T10:58:55.399Z,196.88
2018-05-03T10:59:55.474Z,196.88
2018-05-03T11:00:55.409Z,191.25
2018-05-03T11:01:55.407Z,191.25
2018-05-03T11:02:55.413Z,191.25
2018-05-03T11:03:55.408Z,191.25
2018-05-03T11:04:55.408Z,196.88
2018-05-03T11:05:55.416Z,208.13
2018-05-03T11:06:55.412Z,208.13
2018-05-03T11:07:55.412Z,202.50
2018-05-03T11:08:55.418Z,196.88
2018-05-03T11:09:55.416Z,202.50
2018-05-03T11:10:55.421Z,208.13
2018-05-03T11:11:55.419Z,208.13
2018-05-03T11:12:55.421Z,208.13
2018-05-03T11:13:55.424Z,213.75
2018-05-03T11:14:55.423Z,213.75
2018-05-03T11:15:55.426Z,208.13
2018-05-03T11:16:55.430Z,213.75
2018-05-03T11:17:55.430Z,213.75
2018-05-03T11:18:55.427Z,219.38
2018-05-03T11:19:55.433Z,219.38
2018-05-03T11:20:55.436Z,213.75
2018-05-03T11:21:55.514Z,213.75
2018-05-03T11:22:55.437Z,208.13
2018-05-03T11:23:55.437Z,180.00
2018-05-03T11:24:55.441Z,174.38
2018-05-03T11:25:55.463Z,191.25
2018-05-03T11:26:55.442Z,191.25
2018-05-03T11:27:55.448Z,180.00
2018-05-03T11:28:55.525Z,180.00
2018-05-03T11:29:55.454Z,191.25
2018-05-03T11:30:55.448Z,208.13
2018-05-03T11:31:55.451Z,241.88
2018-05-03T11:32:55.452Z,270.00
2018-05-03T11:33:55.457Z,298.13
2018-05-03T11:34:55.458Z,320.63
2018-05-03T11:35:55.459Z,343.13
2018-05-03T11:36:55.493Z,354.38
2018-05-03T11:37:55.461Z,360.00
2018-05-03T11:38:55.462Z,354.38
2018-05-03T11:39:55.477Z,343.13
2018-05-03T11:40:55.468Z,337.50
2018-05-03T11:41:55.467Z,337.50
2018-05-03T11:42:55.469Z,326.25
2018-05-03T11:43:55.470Z,309.38
2018-05-03T11:44:55.475Z,286.88
2018-05-03T11:45:55.476Z,270.00
2018-05-03T11:46:55.476Z,264.38
2018-05-03T11:47:55.475Z,270.00
2018-05-03T11:48:55.481Z,275.63
2018-05-03T11:49:55.483Z,281.25
2018-05-03T11:50:55.499Z,275.63
2018-05-03T11:51:55.489Z,264.38
2018-05-03T11:52:55.487Z,258.75
2018-05-03T11:53:55.491Z,264.38
2018-05-03T11:54:55.490Z,281.25
2018-05-03T11:55:55.495Z,286.88
2018-05-03T11:56:55.498Z,281.25
2018-05-03T11:57:55.497Z,270.00
2018-05-03T11:58:55.500Z,270.00
2018-05-03T11:59:55.518Z,270.00
2018-05-03T12:00:55.501Z,286.88
2018-05-03T12:01:55.506Z,281.25
2018-05-03T12:02:55.508Z,286.88
2018-05-03T12:03:55.509Z,270.00
2018-05-03T12:04:55.511Z,264.38
2018-05-03T12:05:55.559Z,292.50
2018-05-03T12:06:55.515Z,275.63
2018-05-03T12:07:55.517Z,270.00
2018-05-03T12:08:55.568Z,264.38
2018-05-03T12:09:55.522Z,247.50
2018-05-03T12:10:55.522Z,208.13
2018-05-03T12:11:55.525Z,180.00
2018-05-03T12:12:55.528Z,163.13
2018-05-03T12:13:55.529Z,157.50
2018-05-03T12:14:55.529Z,151.88
2018-05-03T12:15:55.533Z,151.88
2018-05-03T12:16:55.535Z,163.13
2018-05-03T12:17:55.536Z,163.13
2018-05-03T12:18:55.538Z,174.38
2018-05-03T12:19:55.540Z,157.50
2018-05-03T12:20:55.544Z,174.38
2018-05-03T12:21:55.544Z,180.00
2018-05-03T12:22:55.545Z,180.00
2018-05-03T12:23:55.548Z,157.50
2018-05-03T12:24:55.550Z,146.25
2018-05-03T12:25:55.552Z,140.63
2018-05-03T12:26:55.554Z,135.00
2018-05-03T12:27:55.555Z,135.00
2018-05-03T12:28:55.560Z,135.00
2018-05-03T12:29:55.560Z,140.63
2018-05-03T12:30:55.561Z,174.38
2018-05-03T12:31:55.562Z,168.75
2018-05-03T12:32:55.570Z,163.13
2018-05-03T12:33:55.568Z,163.13
2018-05-03T12:34:55.630Z,157.50
2018-05-03T12:35:55.569Z,157.50
2018-05-03T12:36:55.571Z,157.50
2018-05-03T12:37:55.585Z,151.88
2018-05-03T12:38:55.577Z,163.13
2018-05-03T12:39:55.576Z,163.13
2018-05-03T12:40:55.579Z,168.75
2018-05-03T12:41:55.582Z,168.75
2018-05-03T12:42:55.581Z,174.38
2018-05-03T12:43:55.585Z,163.13
2018-05-03T12:44:55.588Z,163.13
2018-05-03T12:45:55.584Z,157.50